sensor_id;sensor_type;location;lat;lon;timestamp;P1;durP1;ratioP1;P2;durP2;ratioP2
29732;SDS011;16643;43.158;25.302;2022-09-09T00:10:13;8.48;;;4.20;;
29732;SDS011;16643;43.158;25.302;2022-09-09T00:15:42;6.15;;;4.15;;
29732;SDS011;16643;43.158;25.302;2022-09-09T00:21:02;5.63;;;3.85;;
29732;SDS011;16643;43.158;25.302;2022-09-09T00:23:39;6.80;;;4.40;;
29732;SDS011;16643;43.158;25.302;2022-09-09T00:31:41;5.30;;;4.00;;
29732;SDS011;16643;43.158;25.302;2022-09-09T00:36:44;5.05;;;4.10;;
29732;SDS011;16643;43.158;25.302;2022-09-09T00:39:13;7.55;;;4.30;;
29732;SDS011;16643;43.158;25.302;2022-09-09T00:44:25;5.72;;;3.83;;
29732;SDS011;16643;43.158;25.302;2022-09-09T00:55:54;6.22;;;3.63;;
29732;SDS011;16643;43.158;25.302;2022-09-09T00:58:24;5.40;;;3.65;;
29732;SDS011;16643;43.158;25.302;2022-09-09T01:00:51;6.00;;;3.85;;
29732;SDS011;16643;43.158;25.302;2022-09-09T01:06:14;4.22;;;3.70;;
29732;SDS011;16643;43.158;25.302;2022-09-09T01:14:29;5.93;;;4.13;;
29732;SDS011;16643;43.158;25.302;2022-09-09T01:17:02;5.35;;;3.63;;
29732;SDS011;16643;43.158;25.302;2022-09-09T01:22:15;6.40;;;4.05;;
29732;SDS011;16643;43.158;25.302;2022-09-09T01:27:38;8.63;;;4.82;;
29732;SDS011;16643;43.158;25.302;2022-09-09T01:30:11;7.45;;;4.03;;
29732;SDS011;16643;43.158;25.302;2022-09-09T01:32:45;7.07;;;4.47;;
29732;SDS011;16643;43.158;25.302;2022-09-09T01:35:37;6.60;;;4.30;;
29732;SDS011;16643;43.158;25.302;2022-09-09T01:38:09;5.68;;;4.35;;
29732;SDS011;16643;43.158;25.302;2022-09-09T01:40:35;9.00;;;5.00;;
29732;SDS011;16643;43.158;25.302;2022-09-09T01:43:01;6.53;;;4.18;;
29732;SDS011;16643;43.158;25.302;2022-09-09T01:45:28;6.53;;;4.20;;
29732;SDS011;16643;43.158;25.302;2022-09-09T01:47:55;7.37;;;4.37;;
29732;SDS011;16643;43.158;25.302;2022-09-09T01:50:22;8.45;;;5.05;;
29732;SDS011;16643;43.158;25.302;2022-09-09T01:52:49;9.52;;;4.32;;
29732;SDS011;16643;43.158;25.302;2022-09-09T01:55:18;5.32;;;4.50;;
29732;SDS011;16643;43.158;25.302;2022-09-09T01:58:11;7.43;;;4.47;;
29732;SDS011;16643;43.158;25.302;2022-09-09T02:01:06;6.20;;;4.20;;
29732;SDS011;16643;43.158;25.302;2022-09-09T02:03:49;5.97;;;4.55;;
29732;SDS011;16643;43.158;25.302;2022-09-09T02:09:02;5.50;;;4.40;;
29732;SDS011;16643;43.158;25.302;2022-09-09T02:11:31;6.32;;;4.38;;
29732;SDS011;16643;43.158;25.302;2022-09-09T02:14:10;5.65;;;4.53;;
29732;SDS011;16643;43.158;25.302;2022-09-09T02:16:44;6.85;;;4.45;;
29732;SDS011;16643;43.158;25.302;2022-09-09T02:19:28;9.68;;;4.72;;
29732;SDS011;16643;43.158;25.302;2022-09-09T02:22:00;6.88;;;4.32;;
29732;SDS011;16643;43.158;25.302;2022-09-09T02:24:28;5.72;;;4.65;;
29732;SDS011;16643;43.158;25.302;2022-09-09T02:26:56;9.52;;;4.47;;
29732;SDS011;16643;43.158;25.302;2022-09-09T02:29:27;6.63;;;4.20;;
29732;SDS011;16643;43.158;25.302;2022-09-09T02:31:57;7.60;;;5.00;;
29732;SDS011;16643;43.158;25.302;2022-09-09T02:34:29;8.30;;;4.53;;
29732;SDS011;16643;43.158;25.302;2022-09-09T02:36:58;7.88;;;5.10;;
29732;SDS011;16643;43.158;25.302;2022-09-09T02:39:26;6.77;;;4.37;;
29732;SDS011;16643;43.158;25.302;2022-09-09T02:41:51;7.00;;;4.57;;
29732;SDS011;16643;43.158;25.302;2022-09-09T02:44:18;7.95;;;4.60;;
29732;SDS011;16643;43.158;25.302;2022-09-09T02:46:51;8.60;;;4.13;;
29732;SDS011;16643;43.158;25.302;2022-09-09T02:49:44;7.03;;;4.13;;
29732;SDS011;16643;43.158;25.302;2022-09-09T02:55:00;7.13;;;4.75;;
29732;SDS011;16643;43.158;25.302;2022-09-09T02:57:42;7.25;;;4.82;;
29732;SDS011;16643;43.158;25.302;2022-09-09T03:00:12;7.15;;;5.15;;
29732;SDS011;16643;43.158;25.302;2022-09-09T03:02:38;8.60;;;4.47;;
29732;SDS011;16643;43.158;25.302;2022-09-09T03:05:04;6.45;;;4.53;;
29732;SDS011;16643;43.158;25.302;2022-09-09T03:07:31;8.40;;;4.25;;
29732;SDS011;16643;43.158;25.302;2022-09-09T03:09:57;9.38;;;5.18;;
29732;SDS011;16643;43.158;25.302;2022-09-09T03:12:23;8.20;;;4.25;;
29732;SDS011;16643;43.158;25.302;2022-09-09T03:14:49;6.03;;;4.47;;
29732;SDS011;16643;43.158;25.302;2022-09-09T03:17:14;11.68;;;4.40;;
29732;SDS011;16643;43.158;25.302;2022-09-09T03:19:41;5.68;;;3.75;;
29732;SDS011;16643;43.158;25.302;2022-09-09T03:22:09;7.93;;;4.50;;
29732;SDS011;16643;43.158;25.302;2022-09-09T03:27:00;9.43;;;4.40;;
29732;SDS011;16643;43.158;25.302;2022-09-09T03:29:26;9.45;;;4.53;;
29732;SDS011;16643;43.158;25.302;2022-09-09T03:31:52;6.57;;;4.05;;
29732;SDS011;16643;43.158;25.302;2022-09-09T03:34:18;5.20;;;3.90;;
29732;SDS011;16643;43.158;25.302;2022-09-09T03:36:43;8.77;;;4.47;;
29732;SDS011;16643;43.158;25.302;2022-09-09T03:39:09;5.82;;;4.28;;
29732;SDS011;16643;43.158;25.302;2022-09-09T03:41:35;5.80;;;4.53;;
29732;SDS011;16643;43.158;25.302;2022-09-09T03:44:02;7.10;;;4.57;;
29732;SDS011;16643;43.158;25.302;2022-09-09T03:46:28;8.65;;;4.82;;
29732;SDS011;16643;43.158;25.302;2022-09-09T03:48:54;6.03;;;4.70;;
29732;SDS011;16643;43.158;25.302;2022-09-09T03:51:19;6.25;;;4.25;;
29732;SDS011;16643;43.158;25.302;2022-09-09T03:53:46;7.32;;;4.53;;
29732;SDS011;16643;43.158;25.302;2022-09-09T03:56:12;6.85;;;4.18;;
29732;SDS011;16643;43.158;25.302;2022-09-09T03:58:39;9.48;;;4.63;;
29732;SDS011;16643;43.158;25.302;2022-09-09T04:01:06;4.70;;;3.75;;
29732;SDS011;16643;43.158;25.302;2022-09-09T04:03:34;5.55;;;4.88;;
29732;SDS011;16643;43.158;25.302;2022-09-09T04:06:00;6.15;;;4.20;;
29732;SDS011;16643;43.158;25.302;2022-09-09T04:08:28;6.28;;;4.47;;
29732;SDS011;16643;43.158;25.302;2022-09-09T04:10:56;5.33;;;4.40;;
29732;SDS011;16643;43.158;25.302;2022-09-09T04:13:23;7.82;;;4.78;;
29732;SDS011;16643;43.158;25.302;2022-09-09T04:15:56;7.78;;;5.05;;
29732;SDS011;16643;43.158;25.302;2022-09-09T04:18:23;7.90;;;4.57;;
29732;SDS011;16643;43.158;25.302;2022-09-09T04:20:51;5.78;;;4.38;;
29732;SDS011;16643;43.158;25.302;2022-09-09T04:23:18;6.27;;;4.47;;
29732;SDS011;16643;43.158;25.302;2022-09-09T04:25:45;7.07;;;4.97;;
29732;SDS011;16643;43.158;25.302;2022-09-09T04:28:15;5.78;;;3.92;;
29732;SDS011;16643;43.158;25.302;2022-09-09T04:30:41;8.75;;;4.70;;
29732;SDS011;16643;43.158;25.302;2022-09-09T04:33:08;6.93;;;4.50;;
29732;SDS011;16643;43.158;25.302;2022-09-09T04:35:37;5.75;;;3.78;;
29732;SDS011;16643;43.158;25.302;2022-09-09T04:38:04;8.52;;;4.82;;
29732;SDS011;16643;43.158;25.302;2022-09-09T04:40:33;8.13;;;4.30;;
29732;SDS011;16643;43.158;25.302;2022-09-09T04:42:59;8.57;;;5.38;;
29732;SDS011;16643;43.158;25.302;2022-09-09T04:45:26;8.63;;;5.53;;
29732;SDS011;16643;43.158;25.302;2022-09-09T04:47:52;10.98;;;5.93;;
29732;SDS011;16643;43.158;25.302;2022-09-09T04:50:19;11.00;;;6.18;;
29732;SDS011;16643;43.158;25.302;2022-09-09T04:52:45;10.43;;;6.13;;
29732;SDS011;16643;43.158;25.302;2022-09-09T04:55:10;9.65;;;6.00;;
29732;SDS011;16643;43.158;25.302;2022-09-09T04:57:38;8.67;;;5.50;;
29732;SDS011;16643;43.158;25.302;2022-09-09T05:00:04;7.38;;;5.18;;
29732;SDS011;16643;43.158;25.302;2022-09-09T05:02:30;9.95;;;5.93;;
29732;SDS011;16643;43.158;25.302;2022-09-09T05:04:57;8.30;;;4.75;;
29732;SDS011;16643;43.158;25.302;2022-09-09T05:07:24;7.72;;;4.45;;
29732;SDS011;16643;43.158;25.302;2022-09-09T05:09:51;5.35;;;4.53;;
29732;SDS011;16643;43.158;25.302;2022-09-09T05:12:17;8.18;;;4.95;;
29732;SDS011;16643;43.158;25.302;2022-09-09T05:14:43;7.47;;;4.20;;
29732;SDS011;16643;43.158;25.302;2022-09-09T05:17:09;7.97;;;4.22;;
29732;SDS011;16643;43.158;25.302;2022-09-09T05:19:36;5.68;;;4.18;;
29732;SDS011;16643;43.158;25.302;2022-09-09T05:22:01;4.93;;;3.30;;
29732;SDS011;16643;43.158;25.302;2022-09-09T05:24:28;5.60;;;3.45;;
29732;SDS011;16643;43.158;25.302;2022-09-09T05:26:54;7.90;;;3.75;;
29732;SDS011;16643;43.158;25.302;2022-09-09T05:29:23;6.85;;;4.10;;
29732;SDS011;16643;43.158;25.302;2022-09-09T05:31:48;6.10;;;3.90;;
29732;SDS011;16643;43.158;25.302;2022-09-09T05:34:14;6.45;;;4.18;;
29732;SDS011;16643;43.158;25.302;2022-09-09T05:36:40;8.52;;;4.28;;
29732;SDS011;16643;43.158;25.302;2022-09-09T05:39:05;9.02;;;3.90;;
29732;SDS011;16643;43.158;25.302;2022-09-09T05:41:31;5.07;;;3.75;;
29732;SDS011;16643;43.158;25.302;2022-09-09T05:43:58;9.93;;;4.68;;
29732;SDS011;16643;43.158;25.302;2022-09-09T05:46:29;8.13;;;4.38;;
29732;SDS011;16643;43.158;25.302;2022-09-09T05:48:55;5.90;;;3.90;;
29732;SDS011;16643;43.158;25.302;2022-09-09T05:51:22;7.50;;;4.15;;
29732;SDS011;16643;43.158;25.302;2022-09-09T05:53:49;6.90;;;4.10;;
29732;SDS011;16643;43.158;25.302;2022-09-09T05:56:17;5.93;;;3.67;;
29732;SDS011;16643;43.158;25.302;2022-09-09T05:58:48;6.10;;;4.15;;
29732;SDS011;16643;43.158;25.302;2022-09-09T06:01:31;5.05;;;3.85;;
29732;SDS011;16643;43.158;25.302;2022-09-09T06:03:59;5.38;;;3.60;;
29732;SDS011;16643;43.158;25.302;2022-09-09T06:06:26;7.60;;;3.78;;
29732;SDS011;16643;43.158;25.302;2022-09-09T06:09:02;5.47;;;3.37;;
29732;SDS011;16643;43.158;25.302;2022-09-09T06:11:32;6.45;;;3.90;;
29732;SDS011;16643;43.158;25.302;2022-09-09T06:14:01;6.07;;;3.45;;
29732;SDS011;16643;43.158;25.302;2022-09-09T06:16:28;6.57;;;3.95;;
29732;SDS011;16643;43.158;25.302;2022-09-09T06:18:55;5.82;;;3.83;;
29732;SDS011;16643;43.158;25.302;2022-09-09T06:21:23;6.43;;;4.10;;
29732;SDS011;16643;43.158;25.302;2022-09-09T06:23:50;9.65;;;4.50;;
29732;SDS011;16643;43.158;25.302;2022-09-09T06:28:46;6.05;;;3.92;;
29732;SDS011;16643;43.158;25.302;2022-09-09T06:31:14;7.15;;;3.70;;
29732;SDS011;16643;43.158;25.302;2022-09-09T06:33:48;7.93;;;4.20;;
29732;SDS011;16643;43.158;25.302;2022-09-09T06:36:19;5.88;;;4.10;;
29732;SDS011;16643;43.158;25.302;2022-09-09T06:38:46;6.13;;;3.60;;
29732;SDS011;16643;43.158;25.302;2022-09-09T06:41:13;8.20;;;4.03;;
29732;SDS011;16643;43.158;25.302;2022-09-09T06:43:41;6.38;;;3.47;;
29732;SDS011;16643;43.158;25.302;2022-09-09T06:46:10;9.75;;;4.20;;
29732;SDS011;16643;43.158;25.302;2022-09-09T06:48:36;7.00;;;3.70;;
29732;SDS011;16643;43.158;25.302;2022-09-09T06:51:12;6.60;;;3.72;;
29732;SDS011;16643;43.158;25.302;2022-09-09T06:53:46;8.13;;;4.00;;
29732;SDS011;16643;43.158;25.302;2022-09-09T06:56:25;4.90;;;3.35;;
29732;SDS011;16643;43.158;25.302;2022-09-09T06:58:53;6.95;;;3.35;;
29732;SDS011;16643;43.158;25.302;2022-09-09T07:03:51;5.18;;;3.05;;
29732;SDS011;16643;43.158;25.302;2022-09-09T07:06:23;7.38;;;4.07;;
29732;SDS011;16643;43.158;25.302;2022-09-09T07:08:51;9.55;;;4.13;;
29732;SDS011;16643;43.158;25.302;2022-09-09T07:11:19;5.95;;;3.50;;
29732;SDS011;16643;43.158;25.302;2022-09-09T07:16:12;7.32;;;3.97;;
29732;SDS011;16643;43.158;25.302;2022-09-09T07:18:40;9.18;;;3.92;;
29732;SDS011;16643;43.158;25.302;2022-09-09T07:21:07;7.63;;;4.35;;
29732;SDS011;16643;43.158;25.302;2022-09-09T07:23:34;7.30;;;3.97;;
29732;SDS011;16643;43.158;25.302;2022-09-09T07:26:07;6.15;;;4.00;;
29732;SDS011;16643;43.158;25.302;2022-09-09T07:28:44;8.45;;;3.95;;
29732;SDS011;16643;43.158;25.302;2022-09-09T07:31:14;4.97;;;3.60;;
29732;SDS011;16643;43.158;25.302;2022-09-09T07:33:42;5.75;;;4.18;;
29732;SDS011;16643;43.158;25.302;2022-09-09T07:36:10;8.73;;;4.43;;
29732;SDS011;16643;43.158;25.302;2022-09-09T07:38:43;5.38;;;3.88;;
29732;SDS011;16643;43.158;25.302;2022-09-09T07:41:15;6.20;;;3.83;;
29732;SDS011;16643;43.158;25.302;2022-09-09T07:43:43;8.65;;;4.07;;
29732;SDS011;16643;43.158;25.302;2022-09-09T07:46:10;6.53;;;3.92;;
29732;SDS011;16643;43.158;25.302;2022-09-09T07:48:44;9.38;;;3.88;;
29732;SDS011;16643;43.158;25.302;2022-09-09T07:51:11;5.97;;;3.40;;
29732;SDS011;16643;43.158;25.302;2022-09-09T07:53:48;6.63;;;3.58;;
29732;SDS011;16643;43.158;25.302;2022-09-09T07:56:17;5.07;;;3.28;;
29732;SDS011;16643;43.158;25.302;2022-09-09T07:58:47;8.05;;;3.22;;
29732;SDS011;16643;43.158;25.302;2022-09-09T08:01:15;8.50;;;3.53;;
29732;SDS011;16643;43.158;25.302;2022-09-09T08:03:45;7.15;;;3.90;;
29732;SDS011;16643;43.158;25.302;2022-09-09T08:08:39;7.18;;;3.42;;
29732;SDS011;16643;43.158;25.302;2022-09-09T08:11:08;7.45;;;3.97;;
29732;SDS011;16643;43.158;25.302;2022-09-09T08:13:39;6.63;;;3.60;;
29732;SDS011;16643;43.158;25.302;2022-09-09T08:16:10;4.00;;;3.30;;
29732;SDS011;16643;43.158;25.302;2022-09-09T08:18:41;4.38;;;3.20;;
29732;SDS011;16643;43.158;25.302;2022-09-09T08:23:43;10.80;;;4.18;;
29732;SDS011;16643;43.158;25.302;2022-09-09T08:26:17;7.15;;;3.67;;
29732;SDS011;16643;43.158;25.302;2022-09-09T08:28:49;6.13;;;3.63;;
29732;SDS011;16643;43.158;25.302;2022-09-09T08:31:17;8.82;;;4.00;;
29732;SDS011;16643;43.158;25.302;2022-09-09T08:33:45;7.35;;;4.18;;
29732;SDS011;16643;43.158;25.302;2022-09-09T08:36:12;6.28;;;4.13;;
29732;SDS011;16643;43.158;25.302;2022-09-09T08:38:43;5.28;;;3.30;;
29732;SDS011;16643;43.158;25.302;2022-09-09T08:49:50;6.57;;;3.78;;
29732;SDS011;16643;43.158;25.302;2022-09-09T08:52:29;7.63;;;3.72;;
29732;SDS011;16643;43.158;25.302;2022-09-09T08:54:56;8.48;;;3.95;;
29732;SDS011;16643;43.158;25.302;2022-09-09T08:57:41;5.60;;;3.83;;
29732;SDS011;16643;43.158;25.302;2022-09-09T09:00:09;7.43;;;3.45;;
29732;SDS011;16643;43.158;25.302;2022-09-09T09:05:46;9.57;;;4.30;;
29732;SDS011;16643;43.158;25.302;2022-09-09T09:08:26;7.43;;;4.15;;
29732;SDS011;16643;43.158;25.302;2022-09-09T09:11:08;6.88;;;4.78;;
29732;SDS011;16643;43.158;25.302;2022-09-09T09:13:54;10.57;;;4.13;;
29732;SDS011;16643;43.158;25.302;2022-09-09T09:18:54;8.93;;;4.68;;
29732;SDS011;16643;43.158;25.302;2022-09-09T09:21:34;6.77;;;4.40;;
29732;SDS011;16643;43.158;25.302;2022-09-09T09:27:14;10.85;;;5.05;;
29732;SDS011;16643;43.158;25.302;2022-09-09T09:29:42;7.28;;;4.10;;
29732;SDS011;16643;43.158;25.302;2022-09-09T09:32:14;9.95;;;3.90;;
29732;SDS011;16643;43.158;25.302;2022-09-09T09:34:48;5.25;;;4.13;;
29732;SDS011;16643;43.158;25.302;2022-09-09T09:37:19;6.80;;;4.70;;
29732;SDS011;16643;43.158;25.302;2022-09-09T09:39:53;6.82;;;4.30;;
29732;SDS011;16643;43.158;25.302;2022-09-09T09:42:19;5.28;;;3.83;;
29732;SDS011;16643;43.158;25.302;2022-09-09T09:44:45;10.68;;;4.68;;
29732;SDS011;16643;43.158;25.302;2022-09-09T09:47:21;8.63;;;4.18;;
29732;SDS011;16643;43.158;25.302;2022-09-09T09:49:51;5.13;;;4.38;;
29732;SDS011;16643;43.158;25.302;2022-09-09T09:52:21;8.25;;;4.28;;
29732;SDS011;16643;43.158;25.302;2022-09-09T09:54:49;8.52;;;4.30;;
29732;SDS011;16643;43.158;25.302;2022-09-09T09:59:43;6.20;;;3.75;;
29732;SDS011;16643;43.158;25.302;2022-09-09T10:02:16;5.97;;;3.90;;
29732;SDS011;16643;43.158;25.302;2022-09-09T10:04:44;8.88;;;4.50;;
29732;SDS011;16643;43.158;25.302;2022-09-09T10:07:21;5.20;;;4.35;;
29732;SDS011;16643;43.158;25.302;2022-09-09T10:09:54;6.40;;;4.93;;
29732;SDS011;16643;43.158;25.302;2022-09-09T10:20:10;8.88;;;4.85;;
29732;SDS011;16643;43.158;25.302;2022-09-09T10:22:50;8.47;;;4.63;;
29732;SDS011;16643;43.158;25.302;2022-09-09T10:28:41;6.40;;;4.50;;
29732;SDS011;16643;43.158;25.302;2022-09-09T10:37:30;8.25;;;4.75;;
29732;SDS011;16643;43.158;25.302;2022-09-09T10:40:02;7.13;;;4.75;;
29732;SDS011;16643;43.158;25.302;2022-09-09T10:42:31;7.07;;;4.38;;
29732;SDS011;16643;43.158;25.302;2022-09-09T10:45:01;9.75;;;4.70;;
29732;SDS011;16643;43.158;25.302;2022-09-09T10:53:22;10.18;;;4.97;;
29732;SDS011;16643;43.158;25.302;2022-09-09T10:56:10;9.68;;;4.53;;
29732;SDS011;16643;43.158;25.302;2022-09-09T10:58:41;9.18;;;4.75;;
29732;SDS011;16643;43.158;25.302;2022-09-09T11:01:47;10.82;;;4.72;;
29732;SDS011;16643;43.158;25.302;2022-09-09T11:06:50;7.07;;;4.00;;
29732;SDS011;16643;43.158;25.302;2022-09-09T11:09:27;8.30;;;4.32;;
29732;SDS011;16643;43.158;25.302;2022-09-09T11:11:58;10.25;;;4.72;;
29732;SDS011;16643;43.158;25.302;2022-09-09T11:17:09;6.80;;;4.47;;
29732;SDS011;16643;43.158;25.302;2022-09-09T11:19:40;6.18;;;3.85;;
29732;SDS011;16643;43.158;25.302;2022-09-09T11:25:04;10.30;;;5.15;;
29732;SDS011;16643;43.158;25.302;2022-09-09T11:27:41;9.98;;;4.10;;
29732;SDS011;16643;43.158;25.302;2022-09-09T11:40:43;13.52;;;4.82;;
29732;SDS011;16643;43.158;25.302;2022-09-09T11:43:23;8.93;;;4.32;;
29732;SDS011;16643;43.158;25.302;2022-09-09T11:45:54;10.35;;;4.63;;
29732;SDS011;16643;43.158;25.302;2022-09-09T11:48:29;12.05;;;5.00;;
29732;SDS011;16643;43.158;25.302;2022-09-09T11:50:59;12.32;;;6.07;;
29732;SDS011;16643;43.158;25.302;2022-09-09T11:53:47;8.75;;;4.32;;
29732;SDS011;16643;43.158;25.302;2022-09-09T11:56:25;11.05;;;6.40;;
29732;SDS011;16643;43.158;25.302;2022-09-09T11:59:33;9.75;;;5.35;;
29732;SDS011;16643;43.158;25.302;2022-09-09T12:11:48;5.90;;;4.10;;
29732;SDS011;16643;43.158;25.302;2022-09-09T12:14:21;7.55;;;4.20;;
29732;SDS011;16643;43.158;25.302;2022-09-09T12:17:20;8.05;;;3.67;;
29732;SDS011;16643;43.158;25.302;2022-09-09T12:19:48;12.32;;;4.65;;
29732;SDS011;16643;43.158;25.302;2022-09-09T12:23:05;6.75;;;4.30;;
29732;SDS011;16643;43.158;25.302;2022-09-09T12:25:52;8.52;;;4.28;;
29732;SDS011;16643;43.158;25.302;2022-09-09T12:28:49;9.25;;;4.47;;
29732;SDS011;16643;43.158;25.302;2022-09-09T12:31:24;12.43;;;5.28;;
29732;SDS011;16643;43.158;25.302;2022-09-09T12:34:02;10.57;;;5.50;;
29732;SDS011;16643;43.158;25.302;2022-09-09T12:36:52;13.48;;;4.97;;
29732;SDS011;16643;43.158;25.302;2022-09-09T12:39:29;13.13;;;4.85;;
29732;SDS011;16643;43.158;25.302;2022-09-09T12:42:23;11.98;;;4.70;;
29732;SDS011;16643;43.158;25.302;2022-09-09T12:44:50;10.88;;;4.88;;
29732;SDS011;16643;43.158;25.302;2022-09-09T12:47:30;12.43;;;4.68;;
29732;SDS011;16643;43.158;25.302;2022-09-09T12:50:03;11.40;;;4.80;;
29732;SDS011;16643;43.158;25.302;2022-09-09T12:52:33;8.35;;;4.57;;
29732;SDS011;16643;43.158;25.302;2022-09-09T12:55:03;9.93;;;4.90;;
29732;SDS011;16643;43.158;25.302;2022-09-09T12:57:36;9.90;;;5.88;;
29732;SDS011;16643;43.158;25.302;2022-09-09T13:00:06;10.43;;;5.00;;
29732;SDS011;16643;43.158;25.302;2022-09-09T13:03:01;8.60;;;4.45;;
29732;SDS011;16643;43.158;25.302;2022-09-09T13:05:40;13.05;;;4.93;;
29732;SDS011;16643;43.158;25.302;2022-09-09T13:08:06;10.75;;;4.85;;
29732;SDS011;16643;43.158;25.302;2022-09-09T13:10:35;14.25;;;5.38;;
29732;SDS011;16643;43.158;25.302;2022-09-09T13:13:21;6.57;;;4.80;;
29732;SDS011;16643;43.158;25.302;2022-09-09T13:15:55;14.50;;;5.85;;
29732;SDS011;16643;43.158;25.302;2022-09-09T13:18:24;11.65;;;5.22;;
29732;SDS011;16643;43.158;25.302;2022-09-09T13:20:54;9.45;;;5.25;;
29732;SDS011;16643;43.158;25.302;2022-09-09T13:23:23;7.35;;;4.95;;
29732;SDS011;16643;43.158;25.302;2022-09-09T13:26:01;11.48;;;5.07;;
29732;SDS011;16643;43.158;25.302;2022-09-09T13:28:48;16.50;;;5.20;;
29732;SDS011;16643;43.158;25.302;2022-09-09T13:31:22;9.60;;;4.28;;
29732;SDS011;16643;43.158;25.302;2022-09-09T13:33:49;15.50;;;5.13;;
29732;SDS011;16643;43.158;25.302;2022-09-09T13:36:15;8.70;;;5.32;;
29732;SDS011;16643;43.158;25.302;2022-09-09T13:41:19;9.63;;;5.78;;
29732;SDS011;16643;43.158;25.302;2022-09-09T13:43:46;12.05;;;5.95;;
29732;SDS011;16643;43.158;25.302;2022-09-09T13:48:55;11.93;;;7.78;;
29732;SDS011;16643;43.158;25.302;2022-09-09T13:51:48;14.10;;;7.30;;
29732;SDS011;16643;43.158;25.302;2022-09-09T13:54:20;14.00;;;5.78;;
29732;SDS011;16643;43.158;25.302;2022-09-09T13:56:46;9.55;;;5.35;;
29732;SDS011;16643;43.158;25.302;2022-09-09T13:59:13;8.48;;;5.15;;
29732;SDS011;16643;43.158;25.302;2022-09-09T14:01:40;13.00;;;5.45;;
29732;SDS011;16643;43.158;25.302;2022-09-09T14:04:07;7.78;;;4.97;;
29732;SDS011;16643;43.158;25.302;2022-09-09T14:06:34;8.65;;;5.28;;
29732;SDS011;16643;43.158;25.302;2022-09-09T14:09:09;10.18;;;4.90;;
29732;SDS011;16643;43.158;25.302;2022-09-09T14:11:37;11.75;;;5.95;;
29732;SDS011;16643;43.158;25.302;2022-09-09T14:14:03;10.43;;;6.30;;
29732;SDS011;16643;43.158;25.302;2022-09-09T14:16:30;11.10;;;6.93;;
29732;SDS011;16643;43.158;25.302;2022-09-09T14:18:56;10.50;;;5.65;;
29732;SDS011;16643;43.158;25.302;2022-09-09T14:21:22;9.57;;;5.18;;
29732;SDS011;16643;43.158;25.302;2022-09-09T14:23:48;13.70;;;5.97;;
29732;SDS011;16643;43.158;25.302;2022-09-09T14:26:14;12.50;;;5.68;;
29732;SDS011;16643;43.158;25.302;2022-09-09T14:28:40;12.15;;;5.22;;
29732;SDS011;16643;43.158;25.302;2022-09-09T14:31:06;9.55;;;5.65;;
29732;SDS011;16643;43.158;25.302;2022-09-09T14:33:32;12.45;;;6.80;;
29732;SDS011;16643;43.158;25.302;2022-09-09T14:35:59;11.63;;;7.65;;
29732;SDS011;16643;43.158;25.302;2022-09-09T14:38:31;10.25;;;6.53;;
29732;SDS011;16643;43.158;25.302;2022-09-09T14:40:59;15.02;;;6.53;;
29732;SDS011;16643;43.158;25.302;2022-09-09T14:43:28;9.88;;;5.82;;
29732;SDS011;16643;43.158;25.302;2022-09-09T14:45:55;8.20;;;6.30;;
29732;SDS011;16643;43.158;25.302;2022-09-09T14:48:21;13.60;;;6.88;;
29732;SDS011;16643;43.158;25.302;2022-09-09T14:50:46;12.63;;;6.47;;
29732;SDS011;16643;43.158;25.302;2022-09-09T14:53:12;12.65;;;6.82;;
29732;SDS011;16643;43.158;25.302;2022-09-09T14:55:38;11.65;;;6.70;;
29732;SDS011;16643;43.158;25.302;2022-09-09T14:58:04;12.25;;;7.10;;
29732;SDS011;16643;43.158;25.302;2022-09-09T15:00:31;13.45;;;7.57;;
29732;SDS011;16643;43.158;25.302;2022-09-09T15:02:57;18.63;;;7.18;;
29732;SDS011;16643;43.158;25.302;2022-09-09T15:05:23;9.65;;;6.32;;
29732;SDS011;16643;43.158;25.302;2022-09-09T15:07:49;12.05;;;6.70;;
29732;SDS011;16643;43.158;25.302;2022-09-09T15:10:15;9.30;;;6.68;;
29732;SDS011;16643;43.158;25.302;2022-09-09T15:12:42;12.75;;;7.05;;
29732;SDS011;16643;43.158;25.302;2022-09-09T15:15:08;14.73;;;7.07;;
29732;SDS011;16643;43.158;25.302;2022-09-09T15:17:35;14.52;;;6.90;;
29732;SDS011;16643;43.158;25.302;2022-09-09T15:20:02;10.52;;;6.85;;
29732;SDS011;16643;43.158;25.302;2022-09-09T15:22:30;11.13;;;7.43;;
29732;SDS011;16643;43.158;25.302;2022-09-09T15:24:57;7.82;;;6.63;;
29732;SDS011;16643;43.158;25.302;2022-09-09T15:27:22;13.68;;;7.40;;
29732;SDS011;16643;43.158;25.302;2022-09-09T15:29:49;10.35;;;7.10;;
29732;SDS011;16643;43.158;25.302;2022-09-09T15:32:16;12.05;;;7.28;;
29732;SDS011;16643;43.158;25.302;2022-09-09T15:34:43;15.57;;;7.55;;
29732;SDS011;16643;43.158;25.302;2022-09-09T15:37:11;14.05;;;7.88;;
29732;SDS011;16643;43.158;25.302;2022-09-09T15:39:40;8.13;;;6.55;;
29732;SDS011;16643;43.158;25.302;2022-09-09T15:42:06;11.20;;;7.65;;
29732;SDS011;16643;43.158;25.302;2022-09-09T15:44:42;16.95;;;7.55;;
29732;SDS011;16643;43.158;25.302;2022-09-09T15:47:07;13.77;;;7.15;;
29732;SDS011;16643;43.158;25.302;2022-09-09T15:49:37;15.02;;;7.38;;
29732;SDS011;16643;43.158;25.302;2022-09-09T15:52:03;8.50;;;7.60;;
29732;SDS011;16643;43.158;25.302;2022-09-09T15:54:33;9.68;;;7.22;;
29732;SDS011;16643;43.158;25.302;2022-09-09T15:57:03;9.88;;;7.82;;
29732;SDS011;16643;43.158;25.302;2022-09-09T15:59:30;12.05;;;8.48;;
29732;SDS011;16643;43.158;25.302;2022-09-09T16:01:56;10.52;;;7.50;;
29732;SDS011;16643;43.158;25.302;2022-09-09T16:04:24;12.43;;;8.45;;
29732;SDS011;16643;43.158;25.302;2022-09-09T16:06:51;11.80;;;7.13;;
29732;SDS011;16643;43.158;25.302;2022-09-09T16:09:18;10.77;;;8.07;;
29732;SDS011;16643;43.158;25.302;2022-09-09T16:11:44;12.82;;;8.15;;
29732;SDS011;16643;43.158;25.302;2022-09-09T16:14:10;16.50;;;7.97;;
29732;SDS011;16643;43.158;25.302;2022-09-09T16:16:36;18.73;;;8.30;;
29732;SDS011;16643;43.158;25.302;2022-09-09T16:19:06;15.45;;;7.80;;
29732;SDS011;16643;43.158;25.302;2022-09-09T16:21:39;12.15;;;8.30;;
29732;SDS011;16643;43.158;25.302;2022-09-09T16:24:07;12.48;;;8.45;;
29732;SDS011;16643;43.158;25.302;2022-09-09T16:26:35;11.38;;;8.48;;
29732;SDS011;16643;43.158;25.302;2022-09-09T16:29:03;10.55;;;7.63;;
29732;SDS011;16643;43.158;25.302;2022-09-09T16:31:29;14.98;;;8.57;;
29732;SDS011;16643;43.158;25.302;2022-09-09T16:33:59;11.48;;;8.48;;
29732;SDS011;16643;43.158;25.302;2022-09-09T16:36:25;15.35;;;8.73;;
29732;SDS011;16643;43.158;25.302;2022-09-09T16:38:56;13.48;;;8.70;;
29732;SDS011;16643;43.158;25.302;2022-09-09T16:41:24;12.20;;;8.77;;
29732;SDS011;16643;43.158;25.302;2022-09-09T16:43:57;15.52;;;9.45;;
29732;SDS011;16643;43.158;25.302;2022-09-09T16:48:55;15.73;;;9.07;;
29732;SDS011;16643;43.158;25.302;2022-09-09T16:51:29;11.90;;;8.65;;
29732;SDS011;16643;43.158;25.302;2022-09-09T16:53:58;18.38;;;8.73;;
29732;SDS011;16643;43.158;25.302;2022-09-09T16:56:26;14.20;;;9.15;;
29732;SDS011;16643;43.158;25.302;2022-09-09T16:58:57;16.75;;;8.15;;
29732;SDS011;16643;43.158;25.302;2022-09-09T17:01:24;13.32;;;8.60;;
29732;SDS011;16643;43.158;25.302;2022-09-09T17:03:55;16.80;;;8.00;;
29732;SDS011;16643;43.158;25.302;2022-09-09T17:06:21;10.88;;;8.57;;
29732;SDS011;16643;43.158;25.302;2022-09-09T17:08:53;13.60;;;8.82;;
29732;SDS011;16643;43.158;25.302;2022-09-09T17:11:23;13.15;;;8.30;;
29732;SDS011;16643;43.158;25.302;2022-09-09T17:13:49;15.25;;;8.80;;
29732;SDS011;16643;43.158;25.302;2022-09-09T17:16:17;12.02;;;8.35;;
29732;SDS011;16643;43.158;25.302;2022-09-09T17:18:46;14.57;;;8.20;;